岩国 の空港の天気 - METARとTAF

岩国飛行場 ( RJOI / IWK ) - 山口県岩国市
飛行場実況気象(Metar)
観測時間05/28 20:55 JST (05/28 11:55 UTC)
風向・風速西北西 3m/s
視程10km以上
天気現象
全天の4割程度の雲 雲底高度 3660m
全天の8割程度の雲 雲底高度 7010m
気温22.2℃
湿度44%
気圧1009.8hPa
METARRJOI 281155Z 30005KT 9999 SCT120 BKN230 22/09 A2982 RMK SLP098 T02220094 10267 20211 53024
過去の天気等 Google飛行場航空写真 Wunderground天気予報

過去48時間のMETAR

飛行場予報(TAF)
発表時間: -
28日3時 JST から
風向・風速北 4m/s
視程10km以上
少しの雲 雲底高度 760m
少しの雲 雲底高度 4270m
28日3時 JST ~ 28日9時 JST に一時的に
風向・風速不定 3m/s
28日11時 JST から
風向・風速南 3m/s
視程10km以上
少しの雲 雲底高度 910m
少しの雲 雲底高度 3660m
全天の4割程度の雲 雲底高度 7320m
28日18時 JST ~ 28日20時 JST に徐々に
風向・風速北西 3m/s
視程10km以上
少しの雲 雲底高度 1070m
少しの雲 雲底高度 4880m
TAF RJOI 2713/2813 01006KT 9999 FEW030 SCT160 BKN220 611607 510006 QNH2975INS
FM271800 36007KT 9999 FEW025 FEW140 600000 510006 QNH2977INS
TEMPO 2718/2800 VRB06KT
FM280200 18006KT 9999 FEW030 FEW120 SCT240 510005 QNH2979INS
BECMG 2809/2811 32006KT 9999 FEW035 FEW160 510005 QNH2984INS T16/2721Z T25/2806Z
日本の空港のMETAR・TAFへのリンク

RJTT 東京国際空港
RJAA 新東京国際空港
RJBB 関西国際空港
RJOO 大阪空港
RJGG 中部国際空港
RJCC 新千歳空港
RJFF 福岡空港
ROAH 那覇空港


RJEC 旭川空港
RJCH 函館空港
RJCK 釧路空港
RJCM 女満別空港
RJCB 帯広空港
RJSA 青森空港
RJSS 仙台空港
RJSK 秋田空港
RJSF 福島空港
RJAH 茨城空港
RJSN 新潟空港
RJNT 富山空港
RJNK 小松飛行場
RJNS 静岡空港
RJOH 美保飛行場
RJOC 出雲空港
RJOB 岡山空港
RJOA 広島空港
RJOI 岩国飛行場
RJOT 高松空港
RJOM 松山空港
RJOK 高知空港
RJFR 北九州空港
RJFT 熊本空港
RJFU 長崎空港
RJFS 佐賀空港
RJFO 大分空港
RJFM 宮崎空港
RJFK 鹿児島空港
ROIG 石垣島空港
RJTY 横田飛行場
ROTM 普天間飛行場
RODN 嘉手納飛行場